createdAt,value
2019-02-28T00:00:44.000Z,9.03
2019-02-28T00:03:16.556Z,10.43
2019-02-28T00:05:46.133Z,9.57
2019-02-28T00:08:21.549Z,8.17
2019-02-28T00:10:50.983Z,7.30
2019-02-28T00:13:21.734Z,9.30
2019-02-28T00:15:51.122Z,8.93
2019-02-28T00:18:24.210Z,10.03
2019-02-28T00:20:54.422Z,9.17
2019-02-28T00:23:23.546Z,7.23
2019-02-28T00:25:55.236Z,11.80
2019-02-28T00:28:25.768Z,11.90
2019-02-28T00:30:55.273Z,7.83
2019-02-28T00:33:24.384Z,9.70
2019-02-28T00:35:53.590Z,10.73
2019-02-28T00:38:22.991Z,11.33
2019-02-28T00:40:54.507Z,11.30
2019-02-28T00:43:25.131Z,14.00
2019-02-28T00:45:54.662Z,12.50
2019-02-28T00:48:23.756Z,12.70
2019-02-28T00:50:55.023Z,5.10
2019-02-28T00:53:23.712Z,8.13
2019-02-28T00:55:52.919Z,8.70
2019-02-28T00:58:28.593Z,6.73
2019-02-28T01:00:55.691Z,8.00
2019-02-28T01:03:27.670Z,8.93
2019-02-28T01:05:56.962Z,10.53
2019-02-28T01:08:30.569Z,9.40
2019-02-28T01:11:01.436Z,12.97
2019-02-28T01:13:30.541Z,10.10
2019-02-28T01:16:00.961Z,10.53
2019-02-28T01:18:34.436Z,11.67
2019-02-28T01:21:01.088Z,12.70
2019-02-28T01:23:30.279Z,11.33
2019-02-28T01:26:02.853Z,9.97
2019-02-28T01:28:33.090Z,10.90
2019-02-28T01:31:11.627Z,9.30
2019-02-28T01:33:38.768Z,17.73
2019-02-28T01:36:07.868Z,10.30
2019-02-28T01:38:36.961Z,8.47
2019-02-28T01:41:08.327Z,7.40
2019-02-28T01:43:36.986Z,10.67
2019-02-28T01:46:06.133Z,6.80
2019-02-28T01:48:36.970Z,12.17
2019-02-28T01:51:06.129Z,9.27
2019-02-28T01:53:35.282Z,8.13
2019-02-28T01:56:07.403Z,8.13
2019-02-28T01:58:37.017Z,10.43
2019-02-28T02:01:09.152Z,10.60
2019-02-28T02:03:41.750Z,11.50
2019-02-28T02:06:14.026Z,10.67
2019-02-28T02:08:46.144Z,9.23
2019-02-28T02:11:17.717Z,10.40
2019-02-28T02:13:49.805Z,8.70
2019-02-28T02:16:26.845Z,9.27
2019-02-28T02:18:54.561Z,9.07
2019-02-28T02:21:34.879Z,11.80
2019-02-28T02:24:02.735Z,13.30
2019-02-28T02:26:34.786Z,10.73
2019-02-28T02:29:10.135Z,10.03
2019-02-28T02:31:39.249Z,9.63
2019-02-28T02:34:10.487Z,9.20
2019-02-28T02:36:39.292Z,8.70
2019-02-28T02:39:08.588Z,11.00
2019-02-28T02:41:37.678Z,13.33
2019-02-28T02:44:08.251Z,8.80
2019-02-28T02:46:37.512Z,8.70
2019-02-28T02:49:06.649Z,9.93
2019-02-28T02:51:37.091Z,7.40
2019-02-28T02:54:06.453Z,10.80
2019-02-28T02:56:40.739Z,6.80
2019-02-28T02:59:15.785Z,10.27
2019-02-28T03:01:44.898Z,10.13
2019-02-28T03:04:21.399Z,15.70
2019-02-28T03:06:46.852Z,13.33
2019-02-28T03:09:17.493Z,8.47
2019-02-28T03:11:46.566Z,10.90
2019-02-28T03:14:17.727Z,10.87
2019-02-28T03:16:47.108Z,15.07
2019-02-28T03:19:16.322Z,12.93
2019-02-28T03:21:51.052Z,11.30
2019-02-28T03:24:18.587Z,12.43
2019-02-28T03:26:52.168Z,11.73
2019-02-28T03:29:22.581Z,11.40
2019-02-28T03:31:56.437Z,12.47
2019-02-28T03:34:22.679Z,9.60
2019-02-28T03:36:56.986Z,13.63
2019-02-28T03:39:24.586Z,8.90
2019-02-28T03:41:57.722Z,12.87
2019-02-28T03:44:26.819Z,13.43
2019-02-28T03:46:56.001Z,13.50
2019-02-28T03:49:25.200Z,11.67
2019-02-28T03:51:54.377Z,13.87
2019-02-28T03:54:28.890Z,11.47
2019-02-28T03:56:57.546Z,12.57
2019-02-28T03:59:32.012Z,14.10
2019-02-28T04:02:02.930Z,14.60
2019-02-28T04:04:37.375Z,9.60
2019-02-28T04:07:06.495Z,12.10
2019-02-28T04:09:35.947Z,13.10
2019-02-28T04:12:08.719Z,12.23
2019-02-28T04:14:35.954Z,10.43
2019-02-28T04:17:05.113Z,13.10
2019-02-28T04:19:34.206Z,11.53
2019-02-28T04:22:05.789Z,14.63
2019-02-28T04:24:34.916Z,10.50
2019-02-28T04:27:07.050Z,10.13
2019-02-28T04:29:34.947Z,13.50
2019-02-28T04:32:04.889Z,13.10
2019-02-28T04:34:36.396Z,13.70
2019-02-28T04:37:08.538Z,17.77
2019-02-28T04:39:38.873Z,12.17
2019-02-28T04:42:08.044Z,13.17
2019-02-28T04:44:38.670Z,14.20
2019-02-28T04:47:07.900Z,14.43
2019-02-28T04:49:40.385Z,14.73
2019-02-28T04:52:11.845Z,11.00
2019-02-28T04:54:40.530Z,13.97
2019-02-28T04:57:09.699Z,12.27
2019-02-28T04:59:40.136Z,14.53
2019-02-28T05:02:12.538Z,14.17
2019-02-28T05:04:44.755Z,10.60
2019-02-28T05:07:14.144Z,12.57
2019-02-28T05:09:45.246Z,13.30
2019-02-28T05:12:15.424Z,16.90
2019-02-28T05:14:44.570Z,13.57
2019-02-28T05:17:19.391Z,11.40
2019-02-28T05:19:49.053Z,12.20
2019-02-28T05:22:30.332Z,8.53
2019-02-28T05:24:59.489Z,11.43
2019-02-28T05:27:35.613Z,18.30
2019-02-28T05:30:03.481Z,15.30
2019-02-28T05:32:35.635Z,15.53
2019-02-28T05:35:03.597Z,9.20
2019-02-28T05:37:33.872Z,13.60
2019-02-28T05:40:06.070Z,28.60
2019-02-28T05:42:33.797Z,19.83
2019-02-28T05:45:04.664Z,18.17
2019-02-28T05:47:44.757Z,13.93
2019-02-28T05:50:16.623Z,13.37
2019-02-28T05:52:44.764Z,16.20
2019-02-28T05:55:14.243Z,15.00
2019-02-28T05:57:44.783Z,11.90
2019-02-28T06:00:16.710Z,17.00
2019-02-28T06:02:47.422Z,11.13
2019-02-28T06:05:17.601Z,13.70
2019-02-28T06:07:48.122Z,27.23
2019-02-28T06:10:23.513Z,12.27
2019-02-28T06:12:51.050Z,13.43
2019-02-28T06:15:23.456Z,17.93
2019-02-28T06:17:54.991Z,15.63
2019-02-28T06:20:23.721Z,12.33
2019-02-28T06:22:53.425Z,17.00
2019-02-28T06:25:27.183Z,11.87
2019-02-28T06:27:57.114Z,16.63
2019-02-28T06:30:27.825Z,19.37
2019-02-28T06:32:59.154Z,14.90
2019-02-28T06:35:28.668Z,16.10
2019-02-28T06:37:58.087Z,17.10
2019-02-28T06:40:32.663Z,15.70
2019-02-28T06:42:58.433Z,18.27
2019-02-28T06:45:29.669Z,13.40
2019-02-28T06:47:59.514Z,19.17
2019-02-28T06:50:29.372Z,16.87
2019-02-28T06:52:59.974Z,17.93
2019-02-28T06:55:29.019Z,21.00
2019-02-28T06:58:00.163Z,14.63
2019-02-28T07:00:29.375Z,13.97
2019-02-28T07:03:04.383Z,16.80
2019-02-28T07:05:36.333Z,16.23
2019-02-28T07:08:28.797Z,19.33
2019-02-28T07:10:59.290Z,17.63
2019-02-28T07:13:28.401Z,14.70
2019-02-28T07:15:59.912Z,17.30
2019-02-28T07:18:29.189Z,12.70
2019-02-28T07:20:58.453Z,13.10
2019-02-28T07:23:30.028Z,12.40
2019-02-28T07:26:00.422Z,13.50
2019-02-28T07:28:29.607Z,16.07
2019-02-28T07:30:58.745Z,10.83
2019-02-28T07:33:31.258Z,14.63
2019-02-28T07:36:09.593Z,11.90
2019-02-28T07:38:47.717Z,9.37
2019-02-28T07:41:17.413Z,12.17
2019-02-28T07:43:48.091Z,12.30
2019-02-28T07:46:21.320Z,11.70
2019-02-28T07:48:50.523Z,14.43
2019-02-28T07:51:23.928Z,15.90
2019-02-28T07:53:53.010Z,11.10
2019-02-28T07:56:23.913Z,12.57
2019-02-28T07:58:53.784Z,16.03
2019-02-28T08:01:24.508Z,10.87
2019-02-28T08:03:53.864Z,9.83
2019-02-28T08:06:24.086Z,12.13
2019-02-28T08:08:58.585Z,14.93
2019-02-28T08:11:27.691Z,13.47
2019-02-28T08:13:56.933Z,13.07
2019-02-28T08:16:34.060Z,8.97
2019-02-28T08:19:04.529Z,12.60
2019-02-28T08:21:33.740Z,16.53
2019-02-28T08:24:05.357Z,12.50
2019-02-28T08:26:33.731Z,14.17
2019-02-28T08:29:02.940Z,13.73
2019-02-28T08:31:33.029Z,11.73
2019-02-28T08:34:03.544Z,14.47
2019-02-28T08:36:35.993Z,12.13
2019-02-28T08:39:12.017Z,12.93
2019-02-28T08:41:43.131Z,13.30
2019-02-28T08:44:14.399Z,15.40
2019-02-28T08:46:46.380Z,11.50
2019-02-28T08:49:19.439Z,16.53
2019-02-28T08:51:48.990Z,14.40
2019-02-28T08:54:26.113Z,14.57
2019-02-28T08:56:52.371Z,18.17
2019-02-28T08:59:26.550Z,16.80
2019-02-28T09:02:02.250Z,16.40
2019-02-28T09:04:41.482Z,20.10
2019-02-28T09:07:15.903Z,24.70
2019-02-28T09:09:46.860Z,23.80
2019-02-28T09:12:17.249Z,22.60
2019-02-28T09:14:46.460Z,22.63
2019-02-28T09:17:18.540Z,21.53
2019-02-28T09:19:47.446Z,24.10
2019-02-28T09:22:20.279Z,25.10
2019-02-28T09:24:49.438Z,24.80
2019-02-28T09:27:18.619Z,20.43
2019-02-28T09:29:54.525Z,18.80
2019-02-28T09:32:23.774Z,20.33
2019-02-28T09:34:56.095Z,23.60
2019-02-28T09:37:29.549Z,34.47
2019-02-28T09:40:07.670Z,23.03
2019-02-28T09:42:38.671Z,20.83
2019-02-28T09:45:10.219Z,20.63
2019-02-28T09:47:39.774Z,22.00
2019-02-28T09:50:13.415Z,20.73
2019-02-28T09:52:45.699Z,15.93
2019-02-28T09:55:28.045Z,20.23
2019-02-28T09:57:57.601Z,24.90
2019-02-28T10:00:32.132Z,20.73
2019-02-28T10:03:01.252Z,17.47
2019-02-28T10:05:30.420Z,23.20
2019-02-28T10:08:02.903Z,20.60
2019-02-28T10:10:33.447Z,20.47
2019-02-28T10:13:02.601Z,20.87
2019-02-28T10:15:31.881Z,20.13
2019-02-28T10:18:04.365Z,23.93
2019-02-28T10:20:33.489Z,31.53
2019-02-28T10:23:04.179Z,13.27
2019-02-28T10:25:33.664Z,17.27
2019-02-28T10:28:04.065Z,16.67
2019-02-28T10:30:33.319Z,22.13
2019-02-28T10:33:04.562Z,19.67
2019-02-28T10:35:37.601Z,20.70
2019-02-28T10:38:07.035Z,16.93
2019-02-28T10:40:36.551Z,19.40
2019-02-28T10:43:15.085Z,17.70
2019-02-28T10:45:41.991Z,20.63
2019-02-28T10:48:12.355Z,21.17
2019-02-28T10:50:43.033Z,14.97
2019-02-28T10:53:12.745Z,15.77
2019-02-28T10:55:43.716Z,15.13
2019-02-28T10:58:22.439Z,17.13
2019-02-28T11:00:52.092Z,19.00
2019-02-28T11:03:24.179Z,17.33
2019-02-28T11:05:56.258Z,16.53
2019-02-28T11:08:25.805Z,11.40
2019-02-28T11:10:56.828Z,16.97
2019-02-28T11:13:28.490Z,26.63
2019-02-28T11:16:00.895Z,23.93
2019-02-28T11:18:36.415Z,16.40
2019-02-28T11:21:10.026Z,18.80
2019-02-28T11:23:41.601Z,16.50
2019-02-28T11:26:14.823Z,16.90
2019-02-28T11:28:50.496Z,18.97
2019-02-28T11:31:23.054Z,16.83
2019-02-28T11:33:52.910Z,18.30
2019-02-28T11:36:22.420Z,14.07
2019-02-28T11:38:52.523Z,21.00
2019-02-28T11:41:22.709Z,12.90
2019-02-28T11:43:52.094Z,13.57
2019-02-28T11:46:28.798Z,12.47
2019-02-28T11:49:03.738Z,12.70
2019-02-28T11:51:38.615Z,18.20
2019-02-28T11:54:13.471Z,14.90
2019-02-28T11:56:42.696Z,15.23
2019-02-28T11:59:11.921Z,16.23
2019-02-28T12:01:42.479Z,16.52
2019-02-28T12:04:12.407Z,16.37
2019-02-28T12:06:42.586Z,19.10
2019-02-28T12:09:16.336Z,16.03
2019-02-28T12:11:47.408Z,12.30
2019-02-28T12:14:16.545Z,14.60
2019-02-28T12:16:45.669Z,22.80
2019-02-28T12:19:15.853Z,15.00
2019-02-28T12:21:49.071Z,16.00
2019-02-28T12:24:18.217Z,15.93
2019-02-28T12:26:52.595Z,16.93
2019-02-28T12:29:26.141Z,19.07
2019-02-28T12:31:58.811Z,12.50
2019-02-28T12:34:33.924Z,17.43
2019-02-28T12:37:03.070Z,17.43
2019-02-28T12:39:54.423Z,18.50
2019-02-28T12:42:03.134Z,20.57
2019-02-28T12:44:32.250Z,12.33
2019-02-28T12:47:03.350Z,19.93
2019-02-28T12:49:33.224Z,18.00
2019-02-28T12:52:03.114Z,21.00
2019-02-28T12:54:33.505Z,18.17
2019-02-28T12:57:03.483Z,20.00
2019-02-28T12:59:34.705Z,18.33
2019-02-28T13:02:07.356Z,19.63
2019-02-28T13:04:35.889Z,17.20
2019-02-28T13:07:05.999Z,21.97
2019-02-28T13:09:35.093Z,18.03
2019-02-28T13:12:08.118Z,20.70
2019-02-28T13:14:40.706Z,20.13
2019-02-28T13:17:09.371Z,16.27
2019-02-28T13:19:40.576Z,19.93
2019-02-28T13:22:12.251Z,19.63
2019-02-28T13:24:47.635Z,18.97
2019-02-28T13:27:18.980Z,18.23
2019-02-28T13:29:53.250Z,18.83
2019-02-28T13:32:22.461Z,20.20
2019-02-28T13:34:53.242Z,18.07
2019-02-28T13:37:22.673Z,22.13
2019-02-28T13:39:52.880Z,20.33
2019-02-28T13:42:24.987Z,22.53
2019-02-28T13:44:56.111Z,18.47
2019-02-28T13:47:25.583Z,18.20
2019-02-28T13:50:05.414Z,15.27
2019-02-28T13:52:38.474Z,21.67
2019-02-28T13:55:09.029Z,21.53
2019-02-28T13:57:40.739Z,16.60
2019-02-28T14:00:20.593Z,22.93
2019-02-28T14:02:55.126Z,18.90
2019-02-28T14:05:24.648Z,17.40
2019-02-28T14:07:57.180Z,21.17
2019-02-28T14:10:29.675Z,15.40
2019-02-28T14:12:58.247Z,20.80
2019-02-28T14:15:30.264Z,19.40
2019-02-28T14:18:11.635Z,15.93
2019-02-28T14:20:40.973Z,13.53
2019-02-28T14:23:20.172Z,19.50
2019-02-28T14:25:47.988Z,15.13
2019-02-28T14:28:22.985Z,16.37
2019-02-28T14:30:58.759Z,17.80
2019-02-28T14:33:29.854Z,23.70
2019-02-28T14:35:59.352Z,16.77
2019-02-28T14:38:33.783Z,19.10
2019-02-28T14:41:03.122Z,20.30
2019-02-28T14:43:38.859Z,18.70
2019-02-28T14:46:11.171Z,22.83
2019-02-28T14:48:40.776Z,17.70
2019-02-28T14:51:12.165Z,24.07
2019-02-28T14:53:41.392Z,17.70
2019-02-28T14:56:10.860Z,20.90
2019-02-28T14:58:40.299Z,18.37
2019-02-28T15:01:09.617Z,16.23
2019-02-28T15:03:39.430Z,16.33
2019-02-28T15:06:08.696Z,15.50
2019-02-28T15:08:37.846Z,12.57
2019-02-28T15:11:10.274Z,14.53
2019-02-28T15:13:38.157Z,17.60
2019-02-28T15:16:08.380Z,15.27
2019-02-28T15:18:37.533Z,18.70
2019-02-28T15:21:08.462Z,19.30
2019-02-28T15:23:37.618Z,44.43
2019-02-28T15:26:06.919Z,23.50
2019-02-28T15:28:36.528Z,22.50
2019-02-28T15:31:09.455Z,26.83
2019-02-28T15:33:40.598Z,24.40
2019-02-28T15:36:12.377Z,19.23
2019-02-28T15:38:41.920Z,36.50
2019-02-28T15:41:15.599Z,21.90
2019-02-28T15:43:47.086Z,23.27
2019-02-28T15:46:18.195Z,22.83
2019-02-28T15:48:49.470Z,23.97
2019-02-28T15:51:25.671Z,23.00
2019-02-28T15:54:00.941Z,26.73
2019-02-28T15:56:30.096Z,20.60
2019-02-28T15:59:03.443Z,31.20
2019-02-28T16:01:33.201Z,30.03
2019-02-28T16:04:02.301Z,27.90
2019-02-28T16:06:31.403Z,20.83
2019-02-28T16:09:00.557Z,25.53
2019-02-28T16:11:32.186Z,27.37
2019-02-28T16:14:01.378Z,24.50
2019-02-28T16:16:30.511Z,26.90
2019-02-28T16:19:03.438Z,26.50
2019-02-28T16:21:32.548Z,29.33
2019-02-28T16:24:06.126Z,23.93
2019-02-28T16:26:37.680Z,25.40
2019-02-28T16:29:06.811Z,27.87
2019-02-28T16:31:38.562Z,26.03
2019-02-28T16:34:20.731Z,25.97
2019-02-28T16:36:49.956Z,29.63
2019-02-28T16:39:20.171Z,27.33
2019-02-28T16:41:49.788Z,28.50
2019-02-28T16:44:19.176Z,22.00
2019-02-28T16:46:50.020Z,22.60
2019-02-28T16:49:19.257Z,22.30
2019-02-28T16:51:49.508Z,20.37
2019-02-28T16:54:19.367Z,21.60
2019-02-28T16:56:49.449Z,22.03
2019-02-28T16:59:19.907Z,20.20
2019-02-28T17:01:57.033Z,23.03
2019-02-28T17:04:31.102Z,19.23
2019-02-28T17:07:03.195Z,19.03
2019-02-28T17:09:38.930Z,13.97
2019-02-28T17:12:27.173Z,16.77
2019-02-28T17:15:03.775Z,19.20
2019-02-28T17:17:54.877Z,15.83
2019-02-28T17:20:24.025Z,21.93
2019-02-28T17:22:53.304Z,20.00
2019-02-28T17:25:26.375Z,16.70
2019-02-28T17:28:07.007Z,19.47
2019-02-28T17:30:45.855Z,17.70
2019-02-28T17:33:16.715Z,16.63
2019-02-28T17:35:48.391Z,18.90
2019-02-28T17:38:18.564Z,16.53
2019-02-28T17:40:47.609Z,16.87
2019-02-28T17:46:02.857Z,20.70
2019-02-28T17:49:16.198Z,21.50
2019-02-28T17:51:55.539Z,19.97
2019-02-28T17:55:16.119Z,20.20
2019-02-28T17:58:16.195Z,20.33
2019-02-28T18:01:31.381Z,19.90
2019-02-28T18:04:45.236Z,22.80
2019-02-28T18:07:37.437Z,19.10
2019-02-28T18:11:02.148Z,22.17
2019-02-28T18:14:09.485Z,21.00
2019-02-28T18:17:23.812Z,17.53
2019-02-28T18:20:07.577Z,20.27
2019-02-28T18:22:48.676Z,20.73
2019-02-28T18:26:08.961Z,22.23
2019-02-28T18:29:04.965Z,20.50
2019-02-28T18:31:35.947Z,18.47
2019-02-28T18:34:11.275Z,18.73
2019-02-28T18:36:44.343Z,19.77
2019-02-28T18:39:13.763Z,17.30
2019-02-28T18:41:43.210Z,13.73
2019-02-28T18:44:12.867Z,16.70
2019-02-28T18:46:42.073Z,13.80
2019-02-28T18:49:11.171Z,14.80
2019-02-28T18:51:41.779Z,12.83
2019-02-28T18:54:11.236Z,11.37
2019-02-28T18:56:40.482Z,26.80
2019-02-28T18:59:13.810Z,12.70
2019-02-28T19:01:44.634Z,11.13
2019-02-28T19:04:15.344Z,10.77
2019-02-28T19:06:50.297Z,12.03
2019-02-28T19:09:24.616Z,10.07
2019-02-28T19:11:53.735Z,8.37
2019-02-28T19:14:25.204Z,8.13
2019-02-28T19:16:56.958Z,8.07
2019-02-28T19:19:26.085Z,11.00
2019-02-28T19:21:56.614Z,7.50
2019-02-28T19:24:28.687Z,16.60
2019-02-28T19:27:01.483Z,9.70
2019-02-28T19:29:31.285Z,8.00
2019-02-28T19:32:01.037Z,5.40
2019-02-28T19:34:30.233Z,6.10
2019-02-28T19:37:00.822Z,13.30
2019-02-28T19:39:32.333Z,7.83
2019-02-28T19:42:03.321Z,12.33
2019-02-28T19:44:32.418Z,5.67
2019-02-28T19:47:01.716Z,8.63
2019-02-28T19:49:30.817Z,5.60
2019-02-28T19:52:00.137Z,7.07
2019-02-28T19:54:31.718Z,7.70
2019-02-28T19:57:01.972Z,8.80
2019-02-28T19:59:38.951Z,5.13
2019-02-28T20:02:10.063Z,10.90
2019-02-28T20:04:39.176Z,12.77
2019-02-28T20:07:09.392Z,12.83
2019-02-28T20:09:38.526Z,9.33
2019-02-28T20:12:10.109Z,7.60
2019-02-28T20:14:39.249Z,16.27
2019-02-28T20:17:19.537Z,6.33
2019-02-28T20:19:40.300Z,11.00
2019-02-28T20:22:09.655Z,7.23
2019-02-28T20:24:41.835Z,8.13
2019-02-28T20:27:11.259Z,8.30
2019-02-28T20:29:43.559Z,10.10
2019-02-28T20:32:13.668Z,7.93
2019-02-28T20:34:42.820Z,17.43
2019-02-28T20:37:12.083Z,9.30
2019-02-28T20:39:43.951Z,8.80
2019-02-28T20:42:14.565Z,7.47
2019-02-28T20:44:48.183Z,10.90
2019-02-28T20:47:19.668Z,12.73
2019-02-28T20:49:57.089Z,10.53
2019-02-28T20:52:30.320Z,9.60
2019-02-28T20:54:57.185Z,9.27
2019-02-28T20:57:28.843Z,7.53
2019-02-28T20:59:58.014Z,6.33
2019-02-28T21:02:31.617Z,8.67
2019-02-28T21:05:02.226Z,8.97
2019-02-28T21:07:31.374Z,5.47
2019-02-28T21:10:00.523Z,8.30
2019-02-28T21:12:29.624Z,10.80
2019-02-28T21:14:58.805Z,7.43
2019-02-28T21:17:29.589Z,5.20
2019-02-28T21:19:59.987Z,4.67
2019-02-28T21:22:30.140Z,6.60
2019-02-28T21:25:00.005Z,6.80
2019-02-28T21:27:29.426Z,8.10
2019-02-28T21:30:04.494Z,4.67
2019-02-28T21:32:36.258Z,8.07
2019-02-28T21:35:11.073Z,6.20
2019-02-28T21:37:41.148Z,5.30
2019-02-28T21:40:11.262Z,7.13
2019-02-28T21:42:40.363Z,11.10
2019-02-28T21:45:14.744Z,8.20
2019-02-28T21:47:43.862Z,3.73
2019-02-28T21:50:19.972Z,10.37
2019-02-28T21:52:50.894Z,4.30
2019-02-28T21:55:26.013Z,8.17
2019-02-28T21:57:56.162Z,4.50
2019-02-28T22:00:27.754Z,14.93
2019-02-28T22:02:56.861Z,5.30
2019-02-28T22:05:27.089Z,5.57
2019-02-28T22:07:57.817Z,10.50
2019-02-28T22:10:27.174Z,5.50
2019-02-28T22:12:56.291Z,7.20
2019-02-28T22:15:26.609Z,6.63
2019-02-28T22:18:02.029Z,10.40
2019-02-28T22:20:31.205Z,6.47
2019-02-28T22:23:00.516Z,7.07
2019-02-28T22:25:30.806Z,9.90
2019-02-28T22:28:02.459Z,3.83
2019-02-28T22:30:50.482Z,6.00
2019-02-28T22:33:38.033Z,10.20
2019-02-28T22:36:10.765Z,5.13
2019-02-28T22:38:41.016Z,5.20
2019-02-28T22:41:14.636Z,5.13
2019-02-28T22:43:43.804Z,4.17
2019-02-28T22:46:12.902Z,7.47
2019-02-28T22:48:44.186Z,4.60
2019-02-28T22:51:14.435Z,5.20
2019-02-28T22:53:45.313Z,3.97
2019-02-28T22:56:14.418Z,3.23
2019-02-28T22:58:43.507Z,5.27
2019-02-28T23:01:14.775Z,6.40
2019-02-28T23:03:44.135Z,5.13
2019-02-28T23:06:14.346Z,4.70
2019-02-28T23:08:43.454Z,4.83
2019-02-28T23:11:12.959Z,3.80
2019-02-28T23:13:42.549Z,7.90
2019-02-28T23:16:15.271Z,5.17
2019-02-28T23:18:47.494Z,4.47
2019-02-28T23:21:19.630Z,4.33
2019-02-28T23:23:48.773Z,3.40
2019-02-28T23:26:19.011Z,5.53
2019-02-28T23:29:20.925Z,6.70
2019-02-28T23:32:32.881Z,4.00
2019-02-28T23:35:01.999Z,6.60
2019-02-28T23:37:31.603Z,6.20
2019-02-28T23:40:01.028Z,6.70
2019-02-28T23:42:30.235Z,4.93
2019-02-28T23:44:59.330Z,6.63
2019-02-28T23:47:30.312Z,6.07
2019-02-28T23:49:59.893Z,6.60
2019-02-28T23:52:32.397Z,7.83
2019-02-28T23:55:01.561Z,7.10
2019-02-28T23:57:30.764Z,5.63
2019-02-28T23:59:59.855Z,9.53
